aviador You're here:

KARG Decoded Metar

WALNUT RIDGE in AR, USA
Report Time2018-07-19 18:56:00
UTC Time2018-07-19 19:14:56
Flight Rules vfr VFR
Wind170° at 05 kt
W.Decomp.*RWY 18: 4.9 kt HW 1 kt LCW
RWY 13: 3.9 kt HW 3.1 kt RCW
RWY 22: 3.1 kt HW 3.9 kt LCW
W.Rank170° ranks 3
Current wind is below 170° avg. (8.5)
Visibility9999 m
Phenomena:N/A
Clouds:N/A
Expected CloudBase > 2,800 ft AGL from Temp-Dew spread
CeilingNone
Temp32°C (ISA +18)
Dew Point25°C (67% RH)
Heat Index39.3°C
QNH1013 hPa
Density Alt2,690 ft
Elevation272 ft
Report Wrong Elevation
Raw Report
KARG 191856Z AUTO 17005KT 10SM 32/25 A2990 RMK AO2 SLP122
T03170250 $=

Extra information for KARG:More info

Metar Taf Metar & Taf Last 4 Metars F.Rules Stats Wind Profile Meteogram Temp Stats Airport Information Weather charts Add Link Nearby VenuesMetar ALERT Operation Metar Decoded Social comments

AIRNAV info for KARG